Time;durP1;ratioP1;P1;durP2;ratioP2;P2;SDS_P1;SDS_P2;PMS_P1;PMS_P2;Temp;Humidity;BMP_temperature;BMP_pressure;BME280_temperature;BME280_humidity;BME280_pressure;Samples;Min_cycle;Max_cycle;Signal;HPM_P1;HPM_P2
2021/05/26 00:01:39;;;;;;;5.23;4.90;;;11.40;99.90;;;;;;5031483;28;20223;-78
2021/05/26 00:04:08;;;;;;;5.27;5.03;;;11.40;99.90;;;;;;5028222;28;20207;-79
2021/05/26 00:06:34;;;;;;;5.40;5.00;;;11.40;99.90;;;;;;5037718;28;20230;-79
2021/05/26 00:09:00;;;;;;;5.50;5.20;;;11.50;99.90;;;;;;5026379;28;20626;-79
2021/05/26 00:11:27;;;;;;;5.30;5.00;;;11.50;99.90;;;;;;5021405;28;20227;-79
2021/05/26 00:13:53;;;;;;;5.23;4.93;;;11.40;99.90;;;;;;5029444;28;20623;-78
2021/05/26 00:16:22;;;;;;;5.37;5.07;;;11.40;99.90;;;;;;5027606;28;20257;-79
2021/05/26 00:18:48;;;;;;;5.40;5.10;;;11.40;99.90;;;;;;5030439;28;20322;-79
2021/05/26 00:21:15;;;;;;;6.33;5.93;;;11.40;99.90;;;;;;5027494;28;20220;-78
2021/05/26 00:23:42;;;;;;;6.17;5.67;;;11.40;99.90;;;;;;5031205;28;20199;-78
2021/05/26 00:26:08;;;;;;;5.67;5.30;;;11.40;99.90;;;;;;5031334;28;20208;-79
2021/05/26 00:28:35;;;;;;;5.83;5.43;;;11.50;99.90;;;;;;5024316;28;20207;-79
2021/05/26 00:31:04;;;;;;;5.70;5.30;;;11.50;99.90;;;;;;5031224;28;20220;-78
2021/05/26 00:33:30;;;;;;;6.23;5.70;;;11.50;99.90;;;;;;5027350;28;20702;-79
2021/05/26 00:35:57;;;;;;;5.80;5.40;;;11.50;99.90;;;;;;5031280;28;20200;-79
2021/05/26 00:38:24;;;;;;;5.70;5.40;;;11.60;99.90;;;;;;5024077;28;20209;-79
2021/05/26 00:40:50;;;;;;;6.00;5.50;;;11.60;99.90;;;;;;5033165;28;20216;-79
2021/05/26 00:43:17;;;;;;;6.10;5.60;;;11.70;99.90;;;;;;5036928;28;20196;-79
2021/05/26 00:45:43;;;;;;;6.47;6.00;;;11.70;99.90;;;;;;5037492;28;20204;-80
2021/05/26 00:48:10;;;;;;;6.27;5.77;;;11.80;99.90;;;;;;5047156;28;20231;-79
2021/05/26 00:50:39;;;;;;;6.63;6.00;;;11.80;99.90;;;;;;5025929;28;20192;-79
2021/05/26 00:53:08;;;;;;;5.93;5.57;;;11.80;99.90;;;;;;5046058;28;20212;-79
2021/05/26 00:55:36;;;;;;;6.13;5.60;;;11.80;99.90;;;;;;5027125;28;20604;-79
2021/05/26 00:58:05;;;;;;;6.37;5.90;;;11.80;99.90;;;;;;5046682;28;20212;-79
2021/05/26 01:00:34;;;;;;;6.60;6.00;;;11.90;99.90;;;;;;5043454;28;20197;-79
2021/05/26 01:03:08;;;;;;;7.30;6.60;;;11.80;99.90;;;;;;5042707;28;20271;-80
2021/05/26 01:05:38;;;;;;;6.97;6.40;;;11.80;99.90;;;;;;5019644;28;20572;-79
2021/05/26 01:08:05;;;;;;;6.90;6.37;;;11.60;99.90;;;;;;5040720;28;20736;-79
2021/05/26 01:10:33;;;;;;;6.87;6.30;;;11.40;99.90;;;;;;5025251;28;20199;-79
2021/05/26 01:13:12;;;;;;;7.87;6.43;;;11.10;99.90;;;;;;5025106;28;20219;-79
2021/05/26 01:15:40;;;;;;;6.40;6.00;;;11.00;99.90;;;;;;5045362;28;20189;-79
2021/05/26 01:18:21;;;;;;;6.63;6.03;;;10.90;99.90;;;;;;5026674;28;20278;-79
2021/05/26 01:20:48;;;;;;;7.03;6.00;;;10.80;99.90;;;;;;5037712;28;20225;-79
2021/05/26 01:23:17;;;;;;;6.90;6.30;;;10.70;99.90;;;;;;5036060;28;20202;-78
2021/05/26 01:25:46;;;;;;;6.30;5.90;;;10.60;99.90;;;;;;5045369;28;20624;-78
2021/05/26 01:28:13;;;;;;;6.57;6.17;;;10.60;99.90;;;;;;5036778;28;20207;-78
2021/05/26 01:30:40;;;;;;;7.00;6.50;;;10.50;99.90;;;;;;5039284;28;20211;-78
2021/05/26 01:33:06;;;;;;;6.87;6.37;;;10.50;99.90;;;;;;5043149;28;20722;-78
2021/05/26 01:35:39;;;;;;;6.77;6.33;;;10.50;99.90;;;;;;5040464;28;20291;-79
2021/05/26 01:38:07;;;;;;;7.60;7.00;;;10.50;99.90;;;;;;5023156;28;20287;-78
2021/05/26 01:40:34;;;;;;;7.10;6.47;;;10.40;99.90;;;;;;5035914;28;20789;-79
2021/05/26 01:43:00;;;;;;;6.90;6.50;;;10.30;99.90;;;;;;5006090;28;20219;-79
2021/05/26 01:45:27;;;;;;;7.30;6.80;;;10.30;99.90;;;;;;5028811;28;20665;-78
2021/05/26 01:47:54;;;;;;;7.27;6.70;;;10.30;99.90;;;;;;5036349;28;20290;-79
2021/05/26 01:50:21;;;;;;;7.00;6.43;;;10.30;99.90;;;;;;5041515;28;20203;-80
2021/05/26 01:52:52;;;;;;;7.00;6.50;;;10.20;99.90;;;;;;5035792;28;20243;-78
2021/05/26 01:55:19;;;;;;;7.43;6.83;;;10.20;99.90;;;;;;5038693;28;20222;-79
2021/05/26 01:57:48;;;;;;;7.10;6.60;;;10.20;99.90;;;;;;5039174;28;20196;-79
2021/05/26 02:00:20;;;;;;;7.23;6.80;;;10.20;99.90;;;;;;5037274;28;20203;-79
2021/05/26 02:02:47;;;;;;;7.13;6.60;;;10.20;99.90;;;;;;5036414;28;20279;-79
2021/05/26 02:05:16;;;;;;;7.83;7.23;;;10.10;99.90;;;;;;5022980;28;20192;-78
2021/05/26 02:07:42;;;;;;;6.80;6.40;;;10.10;99.90;;;;;;5023375;28;20230;-78
2021/05/26 02:10:11;;;;;;;6.80;6.30;;;10.00;99.90;;;;;;5034841;28;20239;-79
2021/05/26 02:12:38;;;;;;;7.20;6.60;;;10.00;99.90;;;;;;5001852;28;20221;-78
2021/05/26 02:15:10;;;;;;;7.33;6.83;;;10.00;99.90;;;;;;5032643;28;20199;-79
2021/05/26 02:17:38;;;;;;;7.43;6.83;;;9.90;99.90;;;;;;5013543;28;20205;-79
2021/05/26 02:20:08;;;;;;;7.80;7.10;;;10.00;99.90;;;;;;5036424;28;20196;-78
2021/05/26 02:22:34;;;;;;;7.07;6.53;;;10.00;99.90;;;;;;5031693;28;20216;-78
2021/05/26 02:25:02;;;;;;;7.07;6.67;;;10.00;99.90;;;;;;5030324;28;20742;-79
2021/05/26 02:27:30;;;;;;;6.80;6.40;;;10.00;99.90;;;;;;5013813;28;20208;-78
2021/05/26 02:29:56;;;;;;;7.30;6.80;;;10.00;99.90;;;;;;5028617;28;20586;-79
2021/05/26 02:32:25;;;;;;;7.20;6.70;;;10.00;99.90;;;;;;5035355;28;20760;-78
2021/05/26 02:34:52;;;;;;;8.10;7.50;;;10.00;99.90;;;;;;5034902;28;20200;-77
2021/05/26 02:37:18;;;;;;;6.90;6.37;;;10.00;99.90;;;;;;5027607;28;20203;-78
2021/05/26 02:39:45;;;;;;;7.20;6.60;;;10.00;99.90;;;;;;5026358;28;20206;-76
2021/05/26 02:42:11;;;;;;;6.97;6.47;;;10.00;99.90;;;;;;5139144;22;20705;-77
2021/05/26 02:44:40;;;;;;;7.20;6.70;;;10.00;99.90;;;;;;5016581;28;20204;-77
2021/05/26 02:47:11;;;;;;;7.40;6.87;;;10.10;99.90;;;;;;5016292;28;20196;-77
2021/05/26 02:50:07;;;;;;;8.27;7.67;;;10.10;99.90;;;;;;5029310;28;20668;-77
2021/05/26 02:56:47;;;;;;;7.37;6.87;;;10.20;99.90;;;;;;4997481;28;20196;-77
2021/05/26 02:59:46;;;;;;;7.43;6.73;;;10.20;99.90;;;;;;5011342;28;20278;-77
2021/05/26 03:02:28;;;;;;;7.70;7.20;;;10.20;99.90;;;;;;4993585;28;20228;-77
2021/05/26 03:05:09;;;;;;;7.50;7.00;;;10.20;99.90;;;;;;4995878;28;20196;-77
2021/05/26 03:07:36;;;;;;;7.60;7.10;;;10.20;99.90;;;;;;5008820;28;20850;-78
2021/05/26 03:10:04;;;;;;;8.10;7.60;;;10.20;99.90;;;;;;4984758;28;20232;-77
2021/05/26 03:12:30;;;;;;;8.20;7.50;;;10.20;99.90;;;;;;5042372;23;20697;-79
2021/05/26 03:15:00;;;;;;;7.93;7.43;;;10.20;99.90;;;;;;5029913;28;20199;-80
2021/05/26 03:17:28;;;;;;;8.20;7.60;;;10.20;99.90;;;;;;5040796;28;20195;-79
2021/05/26 03:19:55;;;;;;;8.00;7.50;;;10.20;99.90;;;;;;5048987;28;20343;-78
2021/05/26 03:22:32;;;;;;;8.00;7.40;;;10.20;99.90;;;;;;5020283;28;20759;-80
2021/05/26 03:25:13;;;;;;;8.90;8.03;;;10.20;99.90;;;;;;5003351;28;20192;-78
2021/05/26 03:27:40;;;;;;;8.10;7.60;;;10.20;99.90;;;;;;5022367;28;20211;-78
2021/05/26 03:30:09;;;;;;;7.97;7.43;;;10.20;99.90;;;;;;5004721;28;20279;-78
2021/05/26 03:32:36;;;;;;;7.70;7.20;;;10.10;99.90;;;;;;5005119;28;20217;-79
2021/05/26 03:35:04;;;;;;;8.40;7.80;;;10.10;99.90;;;;;;5012776;28;20196;-79
2021/05/26 03:37:31;;;;;;;7.53;7.03;;;10.20;99.90;;;;;;5027854;28;20207;-79
2021/05/26 03:39:58;;;;;;;8.80;8.07;;;10.10;99.90;;;;;;5011720;28;20313;-79
2021/05/26 03:42:25;;;;;;;8.50;7.97;;;10.10;99.90;;;;;;5027928;28;20217;-79
2021/05/26 03:44:52;;;;;;;8.17;7.57;;;10.00;99.90;;;;;;5010077;28;20193;-78
2021/05/26 03:47:19;;;;;;;8.63;8.03;;;10.00;99.90;;;;;;5010234;28;20224;-79
2021/05/26 03:49:46;;;;;;;8.87;8.10;;;10.00;99.90;;;;;;5020612;28;20295;-79
2021/05/26 03:52:12;;;;;;;8.50;7.87;;;9.90;99.90;;;;;;5016019;28;20744;-79
2021/05/26 03:54:44;;;;;;;8.60;8.00;;;9.90;99.90;;;;;;5012194;28;20203;-79
2021/05/26 03:57:10;;;;;;;8.70;8.10;;;9.90;99.90;;;;;;4997153;28;20208;-79
2021/05/26 03:59:38;;;;;;;7.67;7.17;;;9.90;99.90;;;;;;5003022;28;20207;-78
2021/05/26 04:02:05;;;;;;;8.00;7.50;;;9.90;99.90;;;;;;5010614;28;20217;-77
2021/05/26 04:04:32;;;;;;;7.47;6.97;;;9.90;99.90;;;;;;5003015;28;20275;-79
2021/05/26 04:07:04;;;;;;;7.60;7.17;;;9.90;99.90;;;;;;5022684;28;20200;-79
2021/05/26 04:09:33;;;;;;;7.90;7.40;;;9.90;99.90;;;;;;5019746;28;20288;-77
2021/05/26 04:12:01;;;;;;;7.87;7.30;;;9.90;99.90;;;;;;5011232;28;20227;-79
2021/05/26 04:14:42;;;;;;;8.20;7.60;;;10.00;99.90;;;;;;5006563;28;20573;-79
2021/05/26 04:17:43;;;;;;;8.23;7.60;;;10.00;99.90;;;;;;4999370;28;20571;-79
2021/05/26 04:20:19;;;;;;;8.00;7.50;;;10.00;99.90;;;;;;5018950;28;20223;-79
2021/05/26 04:22:45;;;;;;;8.80;8.00;;;10.00;99.90;;;;;;5007276;28;20731;-79
2021/05/26 04:25:13;;;;;;;8.60;8.00;;;10.00;99.90;;;;;;5003508;28;20201;-79
2021/05/26 04:27:41;;;;;;;8.20;7.60;;;10.00;99.90;;;;;;5009598;28;20209;-79
2021/05/26 04:30:08;;;;;;;9.43;8.40;;;10.00;99.90;;;;;;5006932;28;20212;-79
2021/05/26 04:32:40;;;;;;;8.67;7.83;;;10.00;99.90;;;;;;5012329;28;20228;-79
2021/05/26 04:35:07;;;;;;;8.77;8.17;;;10.10;99.90;;;;;;5005202;28;20196;-79
2021/05/26 04:37:34;;;;;;;8.80;8.10;;;10.10;99.90;;;;;;5020515;28;20575;-80
2021/05/26 04:40:00;;;;;;;8.60;7.90;;;10.00;99.90;;;;;;5003421;28;20193;-80
2021/05/26 04:42:27;;;;;;;8.20;7.67;;;10.10;99.90;;;;;;5028623;28;20768;-79
2021/05/26 04:44:54;;;;;;;8.00;7.50;;;10.10;99.90;;;;;;5010083;28;20471;-79
2021/05/26 04:47:21;;;;;;;7.97;7.37;;;10.00;99.90;;;;;;5006101;28;20434;-79
2021/05/26 04:49:47;;;;;;;7.87;7.23;;;10.00;99.90;;;;;;5005647;28;20673;-79
2021/05/26 04:52:13;;;;;;;8.03;7.53;;;10.00;99.90;;;;;;5003483;28;20229;-79
2021/05/26 04:54:42;;;;;;;8.90;8.10;;;10.00;99.90;;;;;;5005515;28;20228;-79
2021/05/26 04:57:09;;;;;;;8.43;7.60;;;10.00;99.90;;;;;;4998831;28;20209;-79
2021/05/26 04:59:35;;;;;;;7.90;7.30;;;10.00;99.90;;;;;;5011318;28;20267;-79
2021/05/26 05:02:02;;;;;;;8.10;7.50;;;10.10;99.90;;;;;;5007166;28;20236;-79
2021/05/26 05:04:28;;;;;;;8.73;7.93;;;10.20;99.90;;;;;;5010039;28;20212;-79
2021/05/26 05:06:56;;;;;;;8.57;7.90;;;10.20;99.90;;;;;;5009894;28;20205;-79
2021/05/26 05:09:22;;;;;;;8.87;8.10;;;10.20;99.90;;;;;;5011129;28;20227;-79
2021/05/26 05:11:49;;;;;;;7.83;7.23;;;10.30;99.90;;;;;;5009610;28;20224;-80
2021/05/26 05:14:16;;;;;;;8.80;8.20;;;10.30;99.90;;;;;;5004474;28;20316;-79
2021/05/26 05:16:42;;;;;;;8.17;7.57;;;10.30;99.90;;;;;;5024237;28;20204;-79
2021/05/26 05:19:09;;;;;;;8.00;7.50;;;10.30;99.90;;;;;;5025980;28;20197;-80
2021/05/26 05:21:36;;;;;;;7.50;7.00;;;10.40;99.90;;;;;;5010868;28;20221;-78
2021/05/26 05:24:03;;;;;;;7.07;6.47;;;10.40;99.90;;;;;;5011860;28;20208;-82
2021/05/26 05:26:29;;;;;;;7.10;6.40;;;10.30;99.90;;;;;;5024865;28;20198;-80
2021/05/26 05:28:55;;;;;;;7.20;6.60;;;10.30;99.90;;;;;;5010281;28;20203;-80
2021/05/26 05:31:22;;;;;;;6.67;6.17;;;10.40;99.90;;;;;;5010081;28;20232;-79
2021/05/26 05:33:48;;;;;;;7.20;6.60;;;10.40;99.90;;;;;;5009601;28;20217;-79
2021/05/26 05:36:15;;;;;;;6.53;6.13;;;10.40;99.90;;;;;;5011045;28;20204;-79
2021/05/26 05:38:42;;;;;;;6.93;6.40;;;10.40;99.90;;;;;;5006327;28;20192;-80
2021/05/26 05:41:08;;;;;;;7.40;6.63;;;10.50;99.90;;;;;;5010088;28;20661;-80
2021/05/26 05:43:36;;;;;;;6.90;6.40;;;10.50;99.90;;;;;;5006637;28;20288;-78
2021/05/26 05:46:02;;;;;;;7.23;6.73;;;10.50;99.90;;;;;;5007744;28;20666;-79
2021/05/26 05:48:29;;;;;;;7.50;6.80;;;10.50;99.90;;;;;;5010544;28;20196;-79
2021/05/26 05:50:55;;;;;;;6.97;6.40;;;10.50;99.90;;;;;;5024830;28;20688;-79
2021/05/26 05:53:22;;;;;;;6.43;5.90;;;10.50;99.90;;;;;;5029780;28;20208;-79
2021/05/26 05:55:49;;;;;;;7.10;6.60;;;10.50;99.90;;;;;;5009944;28;20259;-78
2021/05/26 05:58:22;;;;;;;7.03;6.33;;;10.50;99.90;;;;;;5012007;28;20279;-79
2021/05/26 06:00:49;;;;;;;6.93;6.40;;;10.50;99.90;;;;;;5030174;28;20204;-79
2021/05/26 06:03:15;;;;;;;6.67;6.20;;;10.50;99.90;;;;;;5011331;28;20189;-80
2021/05/26 06:05:41;;;;;;;6.93;6.43;;;10.50;99.90;;;;;;5020863;28;20200;-80
2021/05/26 06:08:08;;;;;;;6.80;6.20;;;10.60;99.90;;;;;;5009218;28;20207;-80
2021/05/26 06:10:35;;;;;;;6.70;6.10;;;10.60;99.90;;;;;;5005480;28;20681;-80
2021/05/26 06:13:06;;;;;;;6.83;6.33;;;10.70;99.90;;;;;;5009980;28;20693;-80
2021/05/26 06:15:32;;;;;;;7.63;6.50;;;10.70;99.90;;;;;;5006984;28;20203;-80
2021/05/26 06:17:59;;;;;;;6.20;5.80;;;10.70;99.90;;;;;;5010345;28;20199;-79
2021/05/26 06:20:25;;;;;;;6.10;5.60;;;10.70;99.90;;;;;;5004962;28;20193;-80
2021/05/26 06:22:52;;;;;;;6.40;5.90;;;10.90;99.90;;;;;;5007774;28;20224;-81
2021/05/26 06:25:18;;;;;;;6.20;5.70;;;11.00;99.90;;;;;;5011990;28;20192;-81
2021/05/26 06:27:46;;;;;;;6.53;5.93;;;11.10;99.90;;;;;;5029482;28;20216;-80
2021/05/26 06:30:13;;;;;;;6.80;6.30;;;11.20;99.90;;;;;;5006331;28;20231;-80
2021/05/26 06:32:40;;;;;;;7.00;6.30;;;11.30;99.90;;;;;;5028032;28;20217;-80
2021/05/26 06:35:07;;;;;;;6.77;6.20;;;11.20;99.90;;;;;;5024421;28;20657;-80
2021/05/26 06:37:33;;;;;;;7.87;7.10;;;11.20;99.90;;;;;;5005555;28;20215;-80
2021/05/26 06:40:00;;;;;;;7.53;7.03;;;11.30;99.90;;;;;;5012409;28;20697;-80
2021/05/26 06:42:26;;;;;;;8.63;7.93;;;11.30;99.90;;;;;;5009572;28;20252;-80
2021/05/26 06:44:53;;;;;;;7.27;6.67;;;11.30;99.90;;;;;;5008784;28;20243;-79
2021/05/26 06:47:22;;;;;;;3.93;2.80;;;11.30;99.90;;;;;;5011127;28;20205;-79
2021/05/26 06:49:49;;;;;;;3.77;2.87;;;11.30;99.90;;;;;;5029699;28;20192;-80
2021/05/26 06:52:15;;;;;;;4.23;2.63;;;11.20;99.90;;;;;;5006050;28;20213;-79
2021/05/26 06:54:41;;;;;;;4.17;2.70;;;11.20;99.90;;;;;;5027043;28;20315;-79
2021/05/26 06:57:08;;;;;;;3.13;2.80;;;11.20;99.90;;;;;;5005982;28;20243;-79
2021/05/26 06:59:34;;;;;;;4.03;2.80;;;11.20;99.90;;;;;;5010680;28;20209;-78
2021/05/26 07:02:01;;;;;;;4.30;2.73;;;11.20;99.90;;;;;;5011781;28;20232;-79
2021/05/26 07:04:28;;;;;;;4.10;2.67;;;11.20;99.90;;;;;;5004572;28;20190;-79
2021/05/26 07:06:55;;;;;;;3.13;2.80;;;11.30;99.90;;;;;;5004379;28;20262;-79
2021/05/26 07:09:22;;;;;;;2.80;2.57;;;11.40;99.90;;;;;;5010023;28;20210;-80
2021/05/26 07:11:51;;;;;;;2.90;2.70;;;11.40;99.90;;;;;;5008524;28;20220;-80
2021/05/26 07:14:17;;;;;;;3.20;2.90;;;11.50;99.90;;;;;;5011830;28;20215;-80
2021/05/26 07:16:44;;;;;;;4.50;4.10;;;11.50;99.90;;;;;;5001266;28;20201;-80
2021/05/26 07:19:12;;;;;;;4.17;3.50;;;11.60;99.90;;;;;;5028269;28;20625;-80
2021/05/26 07:21:39;;;;;;;4.60;4.20;;;11.70;99.90;;;;;;5024461;28;20228;-80
2021/05/26 07:27:30;;;;;;;9.20;8.40;;;11.90;99.90;;;;;;5014260;28;20205;-79
2021/05/26 07:29:57;;;;;;;9.27;8.57;;;12.00;99.90;;;;;;5008916;28;20208;-80
2021/05/26 07:32:23;;;;;;;7.80;7.20;;;12.10;99.90;;;;;;5012378;28;20224;-79
2021/05/26 07:34:51;;;;;;;5.10;4.70;;;12.20;99.90;;;;;;4997850;28;20220;-79
2021/05/26 07:37:17;;;;;;;6.67;6.17;;;12.30;99.90;;;;;;5007201;28;20206;-80
2021/05/26 07:39:43;;;;;;;6.40;5.90;;;12.50;99.90;;;;;;5021914;28;20206;-81
2021/05/26 07:42:12;;;;;;;6.27;5.70;;;12.70;99.90;;;;;;5014856;28;20214;-80
2021/05/26 07:44:39;;;;;;;6.33;5.60;;;12.80;99.90;;;;;;5004406;28;20206;-80
2021/05/26 07:47:06;;;;;;;7.00;6.50;;;13.00;99.90;;;;;;5012622;28;20205;-81
2021/05/26 07:49:32;;;;;;;12.10;6.83;;;13.20;99.90;;;;;;5026593;28;20581;-77
2021/05/26 07:52:03;;;;;;;8.60;8.00;;;13.50;99.90;;;;;;5025152;28;20232;-80
2021/05/26 07:54:30;;;;;;;8.83;7.40;;;13.60;99.90;;;;;;5005600;28;20710;-80
2021/05/26 07:56:58;;;;;;;6.10;5.60;;;13.60;99.90;;;;;;5020786;28;20201;-80
2021/05/26 07:59:25;;;;;;;5.70;5.17;;;13.70;99.90;;;;;;5024909;28;20211;-77
2021/05/26 08:01:51;;;;;;;5.47;4.07;;;13.70;99.90;;;;;;5007849;28;20758;-80
2021/05/26 08:04:18;;;;;;;7.87;4.93;;;13.60;99.90;;;;;;5004817;28;20217;-80
2021/05/26 08:06:44;;;;;;;4.53;4.10;;;13.40;99.90;;;;;;5005414;28;20232;-80
2021/05/26 08:09:12;;;;;;;7.67;4.50;;;13.50;99.90;;;;;;5005221;28;20204;-80
2021/05/26 08:11:38;;;;;;;6.90;4.27;;;13.50;99.90;;;;;;5008105;28;20240;-80
2021/05/26 08:14:05;;;;;;;5.73;5.17;;;13.50;99.90;;;;;;5009593;28;20227;-80
2021/05/26 08:16:31;;;;;;;7.43;5.83;;;13.60;99.90;;;;;;4998388;28;20282;-79
2021/05/26 08:18:57;;;;;;;7.40;4.40;;;13.60;99.90;;;;;;5010405;28;20204;-78
2021/05/26 08:21:23;;;;;;;5.10;3.53;;;13.80;99.90;;;;;;5007364;28;20252;-78
2021/05/26 08:23:50;;;;;;;5.13;3.10;;;13.90;99.90;;;;;;5000947;28;20219;-76
2021/05/26 08:26:21;;;;;;;5.43;3.03;;;14.00;99.90;;;;;;5014089;28;20215;-77
2021/05/26 08:28:47;;;;;;;5.03;2.87;;;14.10;99.90;;;;;;4993513;28;20271;-77
2021/05/26 08:31:14;;;;;;;9.10;3.60;;;14.20;99.90;;;;;;5007194;28;20314;-75
2021/05/26 08:33:41;;;;;;;6.20;3.07;;;14.00;99.90;;;;;;5006652;28;20218;-80
2021/05/26 08:36:08;;;;;;;9.20;3.30;;;14.00;99.90;;;;;;5004876;28;20214;-77
2021/05/26 08:38:35;;;;;;;5.67;2.83;;;13.80;99.90;;;;;;5012889;28;21080;-77
2021/05/26 08:41:05;;;;;;;8.20;3.37;;;13.70;99.90;;;;;;5013070;28;20205;-77
2021/05/26 08:43:34;;;;;;;11.67;4.13;;;13.70;99.90;;;;;;5009113;28;20657;-77
2021/05/26 08:46:03;;;;;;;5.87;3.03;;;13.60;99.90;;;;;;5005403;28;20688;-77
2021/05/26 08:48:30;;;;;;;6.73;3.37;;;13.60;99.90;;;;;;5003290;28;20238;-79
2021/05/26 08:50:57;;;;;;;6.67;2.80;;;13.70;99.90;;;;;;5006597;28;20216;-80
2021/05/26 08:53:24;;;;;;;33.67;9.93;;;13.70;99.90;;;;;;5011593;28;20688;-77
2021/05/26 08:55:51;;;;;;;19.47;8.80;;;13.70;99.90;;;;;;5003651;28;20287;-78
2021/05/26 08:58:17;;;;;;;13.97;8.23;;;13.60;99.90;;;;;;5010218;28;20214;-78
2021/05/26 09:00:45;;;;;;;7.57;6.50;;;13.60;99.90;;;;;;5008338;28;20767;-77
2021/05/26 09:03:11;;;;;;;8.03;7.33;;;13.60;99.90;;;;;;5004570;28;20230;-78
2021/05/26 09:05:38;;;;;;;9.87;7.90;;;13.40;99.90;;;;;;5012753;28;20202;-78
2021/05/26 09:08:17;;;;;;;8.23;7.40;;;13.40;99.90;;;;;;5004941;28;20238;-78
2021/05/26 09:10:48;;;;;;;20.47;9.40;;;13.30;99.90;;;;;;5012947;28;20564;-78
2021/05/26 09:13:33;;;;;;;10.37;7.97;;;13.20;99.90;;;;;;5005871;28;20309;-78
2021/05/26 09:16:01;;;;;;;9.83;8.80;;;13.20;99.90;;;;;;5007435;28;20200;-81
2021/05/26 09:18:27;;;;;;;8.10;7.30;;;13.10;99.90;;;;;;5001607;28;20203;-78
2021/05/26 09:20:56;;;;;;;9.10;7.80;;;13.20;99.90;;;;;;5008578;28;20290;-80
2021/05/26 09:23:28;;;;;;;8.03;7.37;;;13.10;99.90;;;;;;5004065;28;20598;-80
2021/05/26 09:25:57;;;;;;;8.47;7.67;;;13.00;99.90;;;;;;5011786;28;20238;-79
2021/05/26 09:28:30;;;;;;;8.20;7.50;;;13.10;99.90;;;;;;5014929;28;20200;-80
2021/05/26 09:30:58;;;;;;;8.00;7.30;;;13.10;99.90;;;;;;5014147;28;20668;-80
2021/05/26 09:33:34;;;;;;;8.40;7.10;;;13.20;99.90;;;;;;5004463;28;20219;-79
2021/05/26 09:36:18;;;;;;;8.20;7.40;;;13.30;99.90;;;;;;5015480;28;20210;-79
2021/05/26 09:38:46;;;;;;;8.97;8.00;;;13.30;99.90;;;;;;5007993;28;20246;-79
2021/05/26 09:41:15;;;;;;;8.57;7.90;;;13.40;99.90;;;;;;5009035;28;20645;-79
2021/05/26 09:43:47;;;;;;;7.83;7.30;;;13.40;99.90;;;;;;5014899;28;20235;-79
2021/05/26 09:46:32;;;;;;;8.00;7.30;;;13.30;99.90;;;;;;5006339;28;20236;-80
2021/05/26 09:49:01;;;;;;;9.47;7.60;;;13.30;99.90;;;;;;5012030;28;20298;-82
2021/05/26 09:51:28;;;;;;;8.27;7.40;;;13.40;99.90;;;;;;5009256;28;20629;-80
2021/05/26 09:54:22;;;;;;;9.77;7.17;;;13.30;99.90;;;;;;5012552;28;20244;-81
2021/05/26 09:56:50;;;;;;;7.57;6.97;;;13.40;99.90;;;;;;5008594;28;20215;-81
2021/05/26 09:59:17;;;;;;;7.80;7.20;;;13.40;99.90;;;;;;5012645;28;20203;-81
2021/05/26 10:01:43;;;;;;;7.50;6.90;;;13.40;99.90;;;;;;5018474;28;20262;-80
2021/05/26 10:04:10;;;;;;;7.80;7.20;;;13.30;99.90;;;;;;5010331;28;20598;-80
2021/05/26 10:06:40;;;;;;;7.97;7.20;;;13.30;99.90;;;;;;5021810;28;20203;-81
2021/05/26 10:09:25;;;;;;;8.10;7.50;;;13.50;99.90;;;;;;5016166;28;20259;-80
2021/05/26 10:12:22;;;;;;;8.27;7.63;;;13.50;99.90;;;;;;5012705;28;20225;-80
2021/05/26 10:14:49;;;;;;;7.70;7.10;;;13.60;99.90;;;;;;5011447;28;20213;-80
2021/05/26 10:17:23;;;;;;;7.90;7.17;;;13.60;99.90;;;;;;5008908;28;20201;-81
2021/05/26 10:19:51;;;;;;;5.17;3.70;;;13.50;99.90;;;;;;5031627;28;20231;-80
2021/05/26 10:22:18;;;;;;;4.10;2.70;;;13.60;99.90;;;;;;5028617;28;20270;-80
2021/05/26 10:24:45;;;;;;;3.30;2.73;;;13.40;99.90;;;;;;5015363;28;20195;-80
2021/05/26 10:27:30;;;;;;;3.43;2.40;;;13.40;99.90;;;;;;5015371;28;20599;-81
2021/05/26 10:29:58;;;;;;;5.43;2.47;;;13.50;99.90;;;;;;5036343;28;20212;-80
2021/05/26 10:32:28;;;;;;;3.40;2.53;;;13.70;99.90;;;;;;5013157;28;20209;-80
2021/05/26 10:35:07;;;;;;;2.90;2.70;;;13.70;99.90;;;;;;5027977;28;20239;-80
2021/05/26 10:37:38;;;;;;;5.67;2.57;;;13.90;99.90;;;;;;5015451;28;20579;-80
2021/05/26 10:40:34;;;;;;;7.63;3.97;;;14.10;99.90;;;;;;5014008;28;20204;-80
2021/05/26 10:43:29;;;;;;;7.37;5.80;;;14.20;99.90;;;;;;5005731;28;20223;-77
2021/05/26 10:45:58;;;;;;;3.40;2.50;;;14.30;99.90;;;;;;5009849;28;20214;-77
2021/05/26 10:49:00;;;;;;;6.60;3.07;;;14.40;99.90;;;;;;5011615;28;20201;-78
2021/05/26 10:52:05;;;;;;;7.43;2.63;;;14.50;99.90;;;;;;5005853;28;20220;-77
2021/05/26 10:55:00;;;;;;;4.03;2.90;;;14.50;99.90;;;;;;5006389;28;20220;-78
2021/05/26 10:57:30;;;;;;;3.50;2.30;;;14.50;99.90;;;;;;5010913;28;20203;-77
2021/05/26 11:00:25;;;;;;;6.30;2.93;;;14.70;99.90;;;;;;5009394;28;20204;-77
2021/05/26 11:03:41;;;;;;;2.30;2.10;;;14.50;99.90;;;;;;5009942;28;20217;-77
2021/05/26 11:06:38;;;;;;;4.93;2.40;;;14.60;99.90;;;;;;5014709;28;20204;-78
2021/05/26 11:09:09;;;;;;;4.70;2.17;;;14.80;99.90;;;;;;5006629;28;20709;-78
2021/05/26 11:11:55;;;;;;;2.53;2.03;;;14.70;99.90;;;;;;5014808;28;20888;-77
2021/05/26 11:14:33;;;;;;;6.70;2.97;;;14.60;99.90;;;;;;5008702;28;20220;-78
2021/05/26 11:17:27;;;;;;;2.60;2.00;;;14.60;99.90;;;;;;5011524;28;20227;-79
2021/05/26 11:20:11;;;;;;;4.37;2.07;;;14.50;99.90;;;;;;5025048;28;21011;-78
2021/05/26 11:22:37;;;;;;;2.63;2.00;;;14.40;99.90;;;;;;5010969;28;20700;-78
2021/05/26 11:25:06;;;;;;;12.97;3.10;;;14.50;99.90;;;;;;5014357;28;20201;-80
2021/05/26 11:27:33;;;;;;;3.07;2.20;;;14.60;99.90;;;;;;5011895;28;20215;-80
2021/05/26 11:30:03;;;;;;;2.37;1.93;;;14.70;99.90;;;;;;5002467;28;20197;-82
2021/05/26 11:32:29;;;;;;;2.40;1.90;;;14.70;99.90;;;;;;5001318;28;20724;-81
2021/05/26 11:34:57;;;;;;;3.20;2.17;;;14.80;99.90;;;;;;5001160;28;20218;-80
2021/05/26 11:37:29;;;;;;;1.97;1.87;;;14.90;99.90;;;;;;5021586;28;20204;-81
2021/05/26 11:39:56;;;;;;;5.20;2.30;;;14.70;99.90;;;;;;5003303;28;20205;-80
2021/05/26 11:42:26;;;;;;;2.57;2.10;;;14.90;99.90;;;;;;5001697;28;20739;-80
2021/05/26 11:44:59;;;;;;;2.00;1.80;;;15.20;99.90;;;;;;5012793;28;20689;-80
2021/05/26 11:47:33;;;;;;;3.27;2.70;;;15.40;99.90;;;;;;5007840;28;20593;-81
2021/05/26 11:50:00;;;;;;;4.60;4.03;;;15.40;99.90;;;;;;5022232;28;20558;-80
2021/05/26 11:52:27;;;;;;;5.73;4.20;;;15.50;99.90;;;;;;5027393;28;20222;-81
2021/05/26 11:54:54;;;;;;;4.20;3.90;;;15.70;99.90;;;;;;5002926;28;20229;-80
2021/05/26 11:57:21;;;;;;;2.20;2.00;;;15.70;99.90;;;;;;5026135;28;20199;-82
2021/05/26 11:59:51;;;;;;;2.47;2.27;;;15.50;99.90;;;;;;5012033;28;20228;-82
2021/05/26 12:02:18;;;;;;;4.30;4.00;;;15.60;99.90;;;;;;4997809;28;20595;-80
2021/05/26 12:04:45;;;;;;;4.20;3.77;;;15.70;99.90;;;;;;5017060;28;20207;-82
2021/05/26 12:07:11;;;;;;;4.20;3.90;;;15.60;99.90;;;;;;5009929;28;20205;-81
2021/05/26 12:09:38;;;;;;;3.27;2.93;;;15.60;99.90;;;;;;5020390;28;20201;-81
2021/05/26 12:12:16;;;;;;;3.07;2.87;;;15.60;99.90;;;;;;5021819;28;20226;-81
2021/05/26 12:14:43;;;;;;;2.63;2.43;;;15.50;99.90;;;;;;5017054;28;20265;-81
2021/05/26 12:17:12;;;;;;;2.60;2.40;;;15.50;99.90;;;;;;5023577;28;20197;-82
2021/05/26 12:19:40;;;;;;;2.73;2.23;;;15.40;99.90;;;;;;5017662;28;20209;-81
2021/05/26 12:22:14;;;;;;;4.50;2.30;;;15.40;99.90;;;;;;5020168;28;20225;-80
2021/05/26 12:24:51;;;;;;;3.13;2.37;;;15.40;99.90;;;;;;5005956;28;20200;-81
2021/05/26 12:27:37;;;;;;;2.77;2.20;;;15.50;99.90;;;;;;5018165;28;20223;-81
2021/05/26 12:30:22;;;;;;;3.47;2.17;;;15.60;99.90;;;;;;5024707;28;20208;-80
2021/05/26 12:32:49;;;;;;;2.97;2.77;;;15.70;99.90;;;;;;5018469;28;20228;-76
2021/05/26 12:35:19;;;;;;;1.90;1.80;;;15.60;99.90;;;;;;5009171;28;20220;-76
2021/05/26 12:37:47;;;;;;;2.80;2.60;;;15.50;99.90;;;;;;5005749;28;20210;-78
2021/05/26 12:40:29;;;;;;;4.90;4.50;;;15.40;99.90;;;;;;5028152;28;20228;-81
2021/05/26 12:42:56;;;;;;;3.33;2.90;;;15.50;99.90;;;;;;5019777;28;20258;-80
2021/05/26 12:45:25;;;;;;;5.57;5.27;;;15.50;99.90;;;;;;5009458;28;20196;-81
2021/05/26 12:47:53;;;;;;;5.10;4.80;;;15.50;99.90;;;;;;5027003;28;20212;-82
2021/05/26 12:50:22;;;;;;;6.93;6.53;;;15.30;99.90;;;;;;5022785;28;20200;-82
2021/05/26 12:52:51;;;;;;;4.43;4.13;;;15.30;99.90;;;;;;5021018;28;20215;-82
2021/05/26 12:55:18;;;;;;;3.40;3.10;;;15.40;99.90;;;;;;5009657;28;20224;-80
2021/05/26 12:57:46;;;;;;;4.00;2.93;;;15.40;99.90;;;;;;5009373;28;20304;-81
2021/05/26 13:00:14;;;;;;;3.60;3.10;;;15.40;99.90;;;;;;5013642;28;20202;-81
2021/05/26 13:02:41;;;;;;;2.90;2.70;;;15.50;99.90;;;;;;5002349;28;20228;-81
2021/05/26 13:05:10;;;;;;;3.30;3.00;;;15.70;99.90;;;;;;5030279;28;20678;-82
2021/05/26 13:07:40;;;;;;;3.10;2.90;;;15.90;99.90;;;;;;5025649;28;20232;-81
2021/05/26 13:10:19;;;;;;;4.40;4.10;;;15.90;99.90;;;;;;5008895;28;20212;-79